Time;durP1;ratioP1;P1;durP2;ratioP2;P2;SDS_P1;SDS_P2;PMS_P1;PMS_P2;Temp;Humidity;BMP_temperature;BMP_pressure;BME280_temperature;BME280_humidity;BME280_pressure;Samples;Min_cycle;Max_cycle;Signal;HPM_P1;HPM_P2
2023/08/07 00:01:44;;;;;;;13.68;3.05;;;;;;;13.60;100.00;101219.91;5094768;28;20063;-56
2023/08/07 00:04:10;;;;;;;12.30;3.03;;;;;;;13.30;100.00;101150.59;5094727;28;20044;-53
2023/08/07 00:06:35;;;;;;;8.77;2.35;;;;;;;13.84;100.00;101236.63;5064419;28;20089;-53
2023/08/07 00:09:00;;;;;;;8.25;2.50;;;;;;;14.19;100.00;101304.03;5076549;28;20043;-54
2023/08/07 00:11:27;;;;;;;8.85;3.38;;;;;;;13.78;100.00;101228.91;5094279;28;20503;-54
2023/08/07 00:13:53;;;;;;;10.77;3.15;;;;;;;14.13;100.00;101296.38;5094771;28;20028;-56
2023/08/07 00:16:21;;;;;;;10.50;2.72;;;;;;;13.73;100.00;101238.81;5094785;28;20032;-56
2023/08/07 00:18:46;;;;;;;12.52;3.17;;;;;;;14.16;100.00;101299.72;5094687;28;20047;-57
2023/08/07 00:21:12;;;;;;;11.02;4.10;;;;;;;14.11;100.00;101291.13;5094523;28;20028;-57
2023/08/07 00:23:37;;;;;;;10.68;3.35;;;;;;;13.61;100.00;101211.06;5075773;28;20028;-53
2023/08/07 00:26:02;;;;;;;13.60;3.67;;;;;;;13.65;100.00;101230.34;5094076;28;20039;-54
2023/08/07 00:28:29;;;;;;;11.38;2.78;;;;;;;14.02;100.00;101283.53;5094395;28;20044;-56
2023/08/07 00:30:54;;;;;;;11.27;3.10;;;;;;;14.07;100.00;101295.66;5094563;28;20043;-55
2023/08/07 00:33:20;;;;;;;15.15;3.30;;;;;;;14.03;100.00;101299.38;5094334;28;20415;-55
2023/08/07 00:35:45;;;;;;;16.60;3.03;;;;;;;13.76;100.00;101244.88;5076102;28;20059;-52
2023/08/07 00:38:10;;;;;;;8.40;2.78;;;;;;;13.69;100.00;101227.50;5093805;28;20461;-53
2023/08/07 00:40:39;;;;;;;8.98;2.78;;;;;;;14.13;100.00;101309.59;5075357;28;20145;-59
2023/08/07 00:43:05;;;;;;;11.70;3.00;;;;;;;13.80;100.00;101258.84;5075804;28;20271;-55
2023/08/07 00:45:37;;;;;;;11.35;3.03;;;;;;;13.99;100.00;101307.47;5075276;28;20141;-56
2023/08/07 00:48:02;;;;;;;13.38;3.85;;;;;;;13.54;100.00;101246.63;5093619;28;20032;-53
2023/08/07 00:50:28;;;;;;;12.50;3.72;;;;;;;13.80;100.00;101304.69;5075834;28;20085;-54
2023/08/07 00:52:53;;;;;;;10.80;3.38;;;;;;;13.79;100.00;101304.75;5075777;28;20071;-53
2023/08/07 00:55:19;;;;;;;11.30;3.67;;;;;;;13.62;100.00;101294.81;5093564;28;20124;-55
2023/08/07 00:57:44;;;;;;;11.05;3.25;;;;;;;13.69;100.00;101314.78;5092757;28;20042;-59
2023/08/07 01:00:10;;;;;;;9.55;3.60;;;;;;;13.30;100.00;101244.91;5093852;28;20032;-55
2023/08/07 01:02:37;;;;;;;12.43;3.75;;;;;;;13.47;100.00;101290.94;5075561;28;20410;-56
2023/08/07 01:05:02;;;;;;;12.70;3.28;;;;;;;13.10;100.00;101224.50;5058621;28;20040;-55
2023/08/07 01:07:27;;;;;;;11.65;3.45;;;;;;;13.50;100.00;101306.69;5093650;28;20038;-55
2023/08/07 01:09:53;;;;;;;10.23;3.28;;;;;;;13.49;100.00;101317.31;5093461;28;20036;-58
2023/08/07 01:12:20;;;;;;;13.68;4.10;;;;;;;13.46;100.00;101313.00;5075676;28;20039;-55
2023/08/07 01:15:12;;;;;;;14.20;3.30;;;;;;;12.95;100.00;101225.88;5074504;28;20031;-55
2023/08/07 01:17:38;;;;;;;9.25;3.28;;;;;;;13.36;100.00;101308.13;5093650;28;20162;-55
2023/08/07 01:20:04;;;;;;;15.90;3.70;;;;;;;13.12;100.00;101240.28;5093363;28;20043;-54
2023/08/07 01:22:30;;;;;;;13.15;3.72;;;;;;;13.57;100.00;101304.69;5074905;28;20032;-54
2023/08/07 01:24:55;;;;;;;9.20;3.03;;;;;;;13.63;100.00;101316.84;5093076;28;20475;-55
2023/08/07 01:27:41;;;;;;;8.65;3.38;;;;;;;13.66;100.00;101316.72;5093245;28;20048;-53
2023/08/07 01:30:17;;;;;;;9.43;2.70;;;;;;;13.68;100.00;101307.81;5091701;28;20052;-55
2023/08/07 01:33:01;;;;;;;11.13;3.33;;;;;;;13.71;100.00;101331.50;5074830;28;20032;-56
2023/08/07 01:35:30;;;;;;;12.88;3.22;;;;;;;13.81;100.00;101353.16;5092783;28;20036;-56
2023/08/07 01:37:57;;;;;;;15.30;3.63;;;;;;;13.77;100.00;101328.63;5075076;28;20028;-57
2023/08/07 01:40:23;;;;;;;8.13;4.05;;;;;;;13.73;100.00;101320.84;5074785;28;20032;-50
2023/08/07 01:42:48;;;;;;;14.35;2.90;;;;;;;13.64;100.00;101307.97;5092808;28;20032;-54
2023/08/07 01:45:13;;;;;;;12.35;3.47;;;;;;;13.19;100.00;101241.78;5074643;28;20024;-58
2023/08/07 01:47:39;;;;;;;13.25;2.85;;;;;;;13.57;100.00;101311.78;5111076;28;20043;-57
2023/08/07 01:50:05;;;;;;;15.73;3.22;;;;;;;13.43;100.00;101296.38;5113248;28;20080;-54
2023/08/07 01:52:30;;;;;;;7.75;2.97;;;;;;;13.14;100.00;101243.72;5094799;28;20118;-55
2023/08/07 01:54:55;;;;;;;10.10;2.67;;;;;;;13.15;100.00;101243.69;5113058;28;20467;-57
2023/08/07 01:57:21;;;;;;;14.27;3.47;;;;;;;13.71;100.00;101320.03;5112677;28;20538;-56
2023/08/07 01:59:46;;;;;;;11.95;2.95;;;;;;;13.39;100.00;101249.84;5112797;28;20116;-59
2023/08/07 02:02:11;;;;;;;10.02;2.60;;;;;;;13.14;100.00;101188.22;5112930;28;20126;-56
2023/08/07 02:04:37;;;;;;;9.60;3.47;;;;;;;13.93;100.00;101316.53;5093365;28;20043;-58
2023/08/07 02:07:02;;;;;;;9.68;2.75;;;;;;;13.94;100.00;101314.75;5113180;28;20040;-57
2023/08/07 02:09:28;;;;;;;7.70;3.20;;;;;;;14.01;100.00;101326.78;5113270;28;20024;-55
2023/08/07 02:11:53;;;;;;;11.82;3.10;;;;;;;13.61;100.00;101250.75;5112653;28;20059;-54
2023/08/07 02:14:19;;;;;;;14.27;3.50;;;;;;;14.08;100.00;101321.22;5112829;28;20035;-53
2023/08/07 02:16:44;;;;;;;12.43;3.58;;;;;;;14.14;100.00;101324.53;5112853;28;20410;-55
2023/08/07 02:19:09;;;;;;;9.13;2.78;;;;;;;14.04;100.00;101308.16;5104409;28;20071;-56
2023/08/07 02:21:34;;;;;;;9.68;3.90;;;;;;;13.86;100.00;101263.91;5092444;28;20032;-54
2023/08/07 02:24:00;;;;;;;9.60;2.78;;;;;;;14.24;100.00;101331.22;5092411;28;20036;-57
2023/08/07 02:26:25;;;;;;;10.95;2.88;;;;;;;14.30;100.00;101333.63;5092266;28;20137;-53
2023/08/07 02:28:50;;;;;;;17.77;3.63;;;;;;;14.26;100.00;101348.75;5073411;28;20105;-54
2023/08/07 02:31:16;;;;;;;9.70;2.90;;;;;;;14.14;100.00;101303.38;5092422;28;20464;-57
2023/08/07 02:33:41;;;;;;;9.60;3.20;;;;;;;13.93;100.00;101268.00;5091049;28;20035;-54
2023/08/07 02:36:07;;;;;;;9.00;3.03;;;;;;;14.34;100.00;101340.53;5092720;28;20036;-56
2023/08/07 02:38:32;;;;;;;9.80;2.67;;;;;;;14.06;100.00;101282.50;5092419;28;20118;-55
2023/08/07 02:40:58;;;;;;;13.85;3.30;;;;;;;13.90;100.00;101268.13;5092136;28;20036;-54
2023/08/07 02:43:23;;;;;;;11.85;3.30;;;;;;;13.09;100.00;101171.66;5092050;28;20518;-56
2023/08/07 02:45:48;;;;;;;15.80;3.40;;;;;;;13.89;100.00;101279.66;5073982;28;20127;-56
2023/08/07 02:48:14;;;;;;;7.07;2.80;;;;;;;14.20;100.00;101333.13;5092074;28;20040;-55
2023/08/07 02:50:39;;;;;;;6.20;1.83;;;;;;;14.09;100.00;101332.69;5076655;28;20035;-51
2023/08/07 02:53:04;;;;;;;4.80;1.20;;;;;;;14.07;100.00;101323.91;5112384;28;20042;-53
2023/08/07 02:55:30;;;;;;;2.30;1.15;;;;;;;13.98;100.00;101319.84;5112496;28;20070;-54
2023/08/07 02:57:55;;;;;;;7.20;2.00;;;;;;;14.01;100.00;101321.50;5093873;28;20040;-50
2023/08/07 03:00:20;;;;;;;9.40;2.08;;;;;;;14.06;100.00;101324.84;5093996;28;20031;-58
2023/08/07 03:02:45;;;;;;;8.23;2.38;;;;;;;14.04;100.00;101330.19;5094340;28;20039;-51
2023/08/07 03:05:11;;;;;;;10.18;2.78;;;;;;;13.54;100.00;101242.19;5112474;28;20039;-54
2023/08/07 03:07:37;;;;;;;7.15;2.75;;;;;;;13.88;100.00;101328.22;5109086;28;20027;-53
2023/08/07 03:10:03;;;;;;;12.57;3.83;;;;;;;13.77;100.00;101318.03;5095540;28;20372;-56
2023/08/07 03:12:29;;;;;;;15.63;3.35;;;;;;;13.74;100.00;101312.00;5095800;28;20067;-54
2023/08/07 03:14:54;;;;;;;11.25;3.20;;;;;;;13.72;100.00;101312.03;5095770;28;20097;-54
2023/08/07 03:17:20;;;;;;;11.23;3.60;;;;;;;12.50;100.00;101137.69;5095882;28;20040;-52
2023/08/07 03:19:46;;;;;;;12.50;3.28;;;;;;;13.67;100.00;101319.28;5076911;28;20046;-53
2023/08/07 03:22:11;;;;;;;11.05;2.58;;;;;;;13.22;100.00;101246.97;5095676;28;20111;-54
2023/08/07 03:24:37;;;;;;;14.57;3.88;;;;;;;13.67;100.00;101326.38;5095413;28;20042;-50
2023/08/07 03:27:02;;;;;;;9.05;3.00;;;;;;;13.66;100.00;101322.84;5095825;28;20097;-52
2023/08/07 03:29:28;;;;;;;16.23;3.50;;;;;;;13.23;100.00;101244.25;5095293;28;20055;-56
2023/08/07 03:31:53;;;;;;;10.45;3.50;;;;;;;13.56;100.00;101289.75;5095570;28;20039;-56
2023/08/07 03:34:18;;;;;;;10.05;2.75;;;;;;;13.73;100.00;101323.50;5077470;28;20441;-60
2023/08/07 03:36:45;;;;;;;7.03;2.40;;;;;;;13.52;100.00;101285.47;5095503;28;20036;-52
2023/08/07 03:39:11;;;;;;;8.88;2.60;;;;;;;13.32;100.00;101248.34;5060762;28;20078;-55
2023/08/07 03:41:37;;;;;;;11.50;2.85;;;;;;;13.31;100.00;101236.06;5076752;28;20036;-56
2023/08/07 03:44:02;;;;;;;9.70;3.13;;;;;;;13.75;100.00;101319.84;5077052;28;20024;-55
2023/08/07 03:46:28;;;;;;;13.45;2.88;;;;;;;13.32;100.00;101243.03;5095536;28;20024;-55
2023/08/07 03:48:53;;;;;;;13.38;2.97;;;;;;;13.79;100.00;101321.47;5060045;28;20032;-57
2023/08/07 03:51:18;;;;;;;8.27;2.95;;;;;;;13.82;100.00;101315.22;5095103;28;20045;-54
2023/08/07 03:53:44;;;;;;;11.15;3.67;;;;;;;13.80;100.00;101314.41;5094977;28;20391;-58
2023/08/07 03:56:09;;;;;;;14.63;3.97;;;;;;;13.69;100.00;101295.44;5076849;28;20043;-57
2023/08/07 03:58:35;;;;;;;12.18;3.25;;;;;;;13.41;100.00;101238.28;5094034;28;20059;-59
2023/08/07 04:01:00;;;;;;;11.73;3.10;;;;;;;13.85;100.00;101315.97;5077074;28;20044;-56
2023/08/07 04:03:25;;;;;;;15.13;3.80;;;;;;;13.69;100.00;101275.13;5094924;28;20035;-59
2023/08/07 04:05:55;;;;;;;9.85;2.35;;;;;;;14.00;100.00;101319.78;5094830;28;20469;-55
2023/08/07 04:08:21;;;;;;;17.73;3.58;;;;;;;13.64;100.00;101258.56;5076771;28;20398;-50
2023/08/07 04:11:04;;;;;;;11.43;3.20;;;;;;;13.49;100.00;101219.47;5094684;28;20483;-55
2023/08/07 04:13:30;;;;;;;11.18;3.05;;;;;;;14.09;100.00;101341.50;5076076;28;20536;-55
2023/08/07 04:15:56;;;;;;;11.20;2.92;;;;;;;14.15;100.00;101332.44;5094636;28;20032;-58
2023/08/07 04:18:22;;;;;;;11.10;3.38;;;;;;;14.19;100.00;101333.16;5094089;28;20542;-54
2023/08/07 04:20:52;;;;;;;12.07;3.10;;;;;;;13.94;100.00;101264.47;5093940;28;20085;-55
2023/08/07 04:23:17;;;;;;;12.15;3.42;;;;;;;14.07;100.00;101305.38;5076845;28;20111;-54
2023/08/07 04:25:43;;;;;;;10.40;2.83;;;;;;;13.88;100.00;101273.50;5094409;28;20111;-55
2023/08/07 04:28:08;;;;;;;11.35;3.13;;;;;;;13.82;100.00;101271.09;5094232;28;20506;-52
2023/08/07 04:30:34;;;;;;;7.88;2.63;;;;;;;13.88;100.00;101285.88;5094342;28;20109;-54
2023/08/07 04:32:59;;;;;;;9.48;2.45;;;;;;;13.95;100.00;101285.56;5112560;28;20406;-54
2023/08/07 04:35:24;;;;;;;11.60;3.05;;;;;;;13.92;100.00;101276.91;5114783;28;20035;-54
2023/08/07 04:37:50;;;;;;;11.38;2.92;;;;;;;14.34;100.00;101353.78;5096416;28;20076;-54
2023/08/07 04:40:15;;;;;;;11.30;3.22;;;;;;;14.36;100.00;101357.25;5096106;28;20123;-56
2023/08/07 04:42:40;;;;;;;9.98;2.45;;;;;;;14.05;100.00;101312.53;5114736;28;20436;-56
2023/08/07 04:45:06;;;;;;;10.30;2.78;;;;;;;14.35;100.00;101368.75;5114598;28;20125;-55
2023/08/07 04:47:31;;;;;;;15.13;2.50;;;;;;;14.33;100.00;101366.16;5107396;28;20138;-53
2023/08/07 04:49:57;;;;;;;15.30;4.47;;;;;;;14.35;100.00;101366.09;5093519;28;20039;-56
2023/08/07 04:52:22;;;;;;;13.60;3.50;;;;;;;14.27;100.00;101354.94;5094092;28;20115;-55
2023/08/07 04:54:48;;;;;;;14.30;2.88;;;;;;;14.35;100.00;101369.63;5094007;28;20126;-52
2023/08/07 04:57:13;;;;;;;8.05;2.40;;;;;;;14.38;100.00;101364.22;5075809;28;20067;-53
2023/08/07 04:59:38;;;;;;;8.70;2.22;;;;;;;14.38;100.00;101374.81;5093883;28;20082;-54
2023/08/07 05:02:04;;;;;;;7.65;2.60;;;;;;;14.44;100.00;101368.41;5093763;28;20040;-56
2023/08/07 05:04:29;;;;;;;8.60;2.47;;;;;;;14.09;100.00;101308.84;5092738;28;20028;-53
2023/08/07 05:06:55;;;;;;;6.97;2.20;;;;;;;14.07;100.00;101323.91;5075308;28;20454;-56
2023/08/07 05:09:20;;;;;;;7.95;2.22;;;;;;;14.38;100.00;101382.75;5093495;28;20075;-56
2023/08/07 05:11:45;;;;;;;7.18;2.20;;;;;;;14.38;100.00;101388.03;5093669;28;20043;-56
2023/08/07 05:14:11;;;;;;;10.10;2.78;;;;;;;14.23;100.00;101353.31;5093326;28;20134;-54
2023/08/07 05:16:36;;;;;;;7.63;2.35;;;;;;;14.03;100.00;101323.19;5093513;28;20055;-53
2023/08/07 05:19:01;;;;;;;10.63;2.80;;;;;;;14.43;100.00;101404.59;5092623;28;20459;-56
2023/08/07 05:21:27;;;;;;;10.80;2.88;;;;;;;14.12;100.00;101359.03;5093166;28;20059;-55
2023/08/07 05:23:54;;;;;;;11.88;2.80;;;;;;;13.79;100.00;101313.53;5093234;28;20118;-51
2023/08/07 05:26:20;;;;;;;12.50;2.97;;;;;;;14.06;100.00;101376.03;5093080;28;20036;-55
2023/08/07 05:28:46;;;;;;;9.30;2.70;;;;;;;13.69;100.00;101327.19;5093076;28;20067;-56
2023/08/07 05:31:11;;;;;;;9.68;2.72;;;;;;;13.69;100.00;101341.25;5092201;28;20407;-54
2023/08/07 05:33:37;;;;;;;9.85;3.40;;;;;;;13.52;100.00;101328.66;5093516;28;20039;-56
2023/08/07 05:36:02;;;;;;;10.48;3.47;;;;;;;13.79;100.00;101392.06;5092437;28;20248;-54
2023/08/07 05:38:27;;;;;;;12.10;3.67;;;;;;;13.71;100.00;101384.41;5093091;28;20494;-55
2023/08/07 05:40:53;;;;;;;12.93;3.28;;;;;;;13.61;100.00;101379.50;5074398;28;20036;-56
2023/08/07 05:43:18;;;;;;;11.05;3.60;;;;;;;13.54;100.00;101387.66;5092668;28;20123;-53
2023/08/07 05:45:46;;;;;;;9.60;3.30;;;;;;;13.48;100.00;101371.16;5092904;28;20067;-54
2023/08/07 05:48:11;;;;;;;14.88;3.38;;;;;;;13.39;100.00;101372.34;5093057;28;20093;-51
2023/08/07 05:50:37;;;;;;;12.27;3.03;;;;;;;13.43;100.00;101360.72;5092493;28;20036;-55
2023/08/07 05:53:02;;;;;;;14.25;3.83;;;;;;;13.53;100.00;101370.06;5076511;28;20031;-59
2023/08/07 05:55:28;;;;;;;7.90;2.90;;;;;;;13.24;100.00;101325.28;5094652;28;20067;-52
2023/08/07 05:57:53;;;;;;;12.80;3.03;;;;;;;13.63;100.00;101394.38;5112872;28;20032;-52
2023/08/07 06:00:19;;;;;;;9.68;2.90;;;;;;;13.53;100.00;101372.72;5112969;28;20036;-52
2023/08/07 06:02:45;;;;;;;12.55;3.50;;;;;;;13.61;100.00;101384.78;5112747;28;20036;-59
2023/08/07 06:05:12;;;;;;;8.55;3.45;;;;;;;13.42;100.00;101334.34;5113058;28;20032;-54
2023/08/07 06:07:38;;;;;;;11.15;3.55;;;;;;;13.44;100.00;101325.44;5094589;28;20405;-55
2023/08/07 06:10:04;;;;;;;14.43;3.00;;;;;;;13.51;100.00;101326.91;5093941;28;20115;-56
2023/08/07 06:12:29;;;;;;;11.68;3.40;;;;;;;13.76;100.00;101365.72;5113035;28;20066;-56
2023/08/07 06:14:55;;;;;;;13.77;3.80;;;;;;;13.52;100.00;101322.50;5077373;28;20068;-54
2023/08/07 06:17:20;;;;;;;10.73;2.85;;;;;;;14.03;100.00;101418.50;5092499;28;20122;-57
2023/08/07 06:19:45;;;;;;;12.60;2.80;;;;;;;14.00;100.00;101413.31;5092144;28;20111;-56
2023/08/07 06:22:10;;;;;;;14.27;3.05;;;;;;;14.05;100.00;101421.94;5092773;28;20089;-56
2023/08/07 06:24:37;;;;;;;11.57;3.03;;;;;;;14.15;100.00;101424.25;5092436;28;20044;-56
2023/08/07 06:27:03;;;;;;;12.85;3.17;;;;;;;13.87;100.00;101352.94;5092556;28;20044;-54
2023/08/07 06:29:28;;;;;;;10.15;3.25;;;;;;;14.49;100.00;101433.50;5091566;28;20407;-57
2023/08/07 06:31:54;;;;;;;11.27;2.95;;;;;;;14.67;100.00;101431.91;5092183;28;20036;-55
2023/08/07 06:34:19;;;;;;;7.25;2.58;;;;;;;14.40;100.00;101380.03;5092311;28;20032;-55
2023/08/07 06:36:44;;;;;;;8.23;2.55;;;;;;;14.91;100.00;101449.50;5092096;28;20440;-57
2023/08/07 06:39:10;;;;;;;6.85;2.33;;;;;;;15.06;100.00;101475.34;5092326;28;20039;-58
2023/08/07 06:41:35;;;;;;;14.25;2.17;;;;;;;14.72;100.00;101368.13;5091166;28;20040;-58
2023/08/07 06:44:01;;;;;;;8.65;2.10;;;;;;;14.84;100.00;101370.28;5096559;28;20150;-58
2023/08/07 06:46:27;;;;;;;11.35;2.35;;;;;;;14.92;100.00;101392.00;5116617;28;20039;-57
2023/08/07 06:48:53;;;;;;;9.25;2.75;;;;;;;14.90;100.00;101389.44;5116704;28;20475;-55
2023/08/07 06:51:18;;;;;;;8.73;2.95;;;;;;;14.86;100.00;101374.59;5116622;28;20027;-56
2023/08/07 06:53:43;;;;;;;10.77;3.28;;;;;;;15.48;100.00;101467.44;5116393;28;20122;-53
2023/08/07 06:56:09;;;;;;;9.93;3.10;;;;;;;15.14;100.00;101395.50;5116817;28;20024;-56
2023/08/07 06:58:34;;;;;;;7.53;1.95;;;;;;;15.52;100.00;101482.31;5116790;28;20044;-53
2023/08/07 07:00:59;;;;;;;10.43;2.50;;;;;;;15.46;100.00;101497.59;5113201;28;20109;-55
2023/08/07 07:03:25;;;;;;;5.32;2.35;;;;;;;15.41;100.00;101495.13;5094599;28;20086;-50
2023/08/07 07:05:50;;;;;;;8.18;2.97;;;;;;;14.91;100.00;101372.63;5111012;28;20043;-55
2023/08/07 07:08:15;;;;;;;9.23;2.33;;;;;;;15.44;100.00;101444.59;5116141;28;20069;-57
2023/08/07 07:10:41;;;;;;;5.93;1.98;;;;;;;15.80;100.00;101489.94;5116377;28;20035;-52
2023/08/07 07:13:07;;;;;;;8.52;2.40;;;;;;;15.50;100.00;101431.09;5116223;28;20391;-57
2023/08/07 07:15:33;;;;;;;12.45;2.15;;;;;;;15.87;100.00;101490.53;5116048;28;20070;-58
2023/08/07 07:17:59;;;;;;;9.07;2.30;;;;;;;16.04;100.00;101499.50;5115924;28;20055;-57
2023/08/07 07:20:26;;;;;;;8.45;2.58;;;;;;;15.63;100.00;101434.09;5098237;28;20031;-54
2023/08/07 07:22:52;;;;;;;6.95;2.47;;;;;;;16.14;100.00;101487.50;5096245;28;20092;-52
2023/08/07 07:25:17;;;;;;;5.50;2.13;;;;;;;15.94;100.00;101452.16;5095585;28;20398;-53
2023/08/07 07:27:42;;;;;;;11.57;2.10;;;;;;;16.52;100.00;101514.97;5094068;28;20509;-55
2023/08/07 07:30:08;;;;;;;5.75;1.90;;;;;;;16.70;100.00;101505.31;5095503;28;20078;-57
2023/08/07 07:32:33;;;;;;;7.85;2.05;;;;;;;17.25;100.00;101520.34;5077484;28;20040;-52
2023/08/07 07:34:59;;;;;;;4.57;1.80;;;;;;;17.33;100.00;101474.75;5095210;28;20032;-57
2023/08/07 07:37:24;;;;;;;6.90;1.92;;;;;;;18.42;100.00;101536.47;5095874;28;20032;-55
2023/08/07 07:39:49;;;;;;;5.38;1.88;;;;;;;18.49;100.00;101531.72;5115949;28;20042;-56
2023/08/07 07:42:15;;;;;;;9.23;1.98;;;;;;;18.16;100.00;101537.00;5116047;28;20028;-56
2023/08/07 07:44:40;;;;;;;7.00;2.00;;;;;;;18.04;100.00;101523.50;5115454;28;20039;-56
2023/08/07 07:47:06;;;;;;;7.65;1.83;;;;;;;18.61;100.00;101539.06;5115751;28;20032;-60
2023/08/07 07:49:33;;;;;;;6.05;1.80;;;;;;;18.47;100.00;101498.94;5115611;28;20035;-55
2023/08/07 07:51:58;;;;;;;5.97;1.58;;;;;;;18.56;100.00;101486.94;5115399;28;20027;-54
2023/08/07 07:54:23;;;;;;;6.70;1.88;;;;;;;18.73;100.00;101522.38;5115582;28;20028;-55
2023/08/07 07:56:49;;;;;;;7.45;2.28;;;;;;;19.24;100.00;101544.38;5080156;28;20079;-58
2023/08/07 07:59:14;;;;;;;4.35;1.88;;;;;;;18.54;100.00;101514.53;5094929;28;20071;-57
2023/08/07 08:01:40;;;;;;;9.07;2.33;;;;;;;18.54;100.00;101570.50;5095017;28;20364;-54
2023/08/07 08:04:06;;;;;;;6.90;2.08;;;;;;;18.19;100.00;101507.53;5084145;28;20043;-59
2023/08/07 08:06:31;;;;;;;5.45;1.75;;;;;;;19.02;100.00;101574.97;5076626;28;20040;-57
2023/08/07 08:08:56;;;;;;;7.22;1.88;;;;;;;19.36;100.00;101565.03;5095122;28;20059;-57
2023/08/07 08:11:22;;;;;;;9.77;2.28;;;;;;;19.55;100.00;101579.97;5094794;28;20039;-57
2023/08/07 08:13:47;;;;;;;6.40;1.83;;;;;;;19.94;100.00;101592.78;5076677;28;20082;-56
2023/08/07 08:16:13;;;;;;;5.55;2.45;;;;;;;19.57;100.00;101534.47;5094704;28;20025;-58
2023/08/07 08:18:38;;;;;;;7.15;1.73;;;;;;;19.82;100.00;101590.00;5093367;28;20043;-56
2023/08/07 08:21:03;;;;;;;7.28;1.70;;;;;;;19.74;100.00;101590.44;5075690;28;20040;-56
2023/08/07 08:23:29;;;;;;;6.97;2.00;;;;;;;20.03;100.00;101600.25;5094553;28;20043;-56
2023/08/07 08:25:54;;;;;;;3.70;1.42;;;;;;;20.31;100.00;101587.94;5094297;28;20035;-54
2023/08/07 08:28:20;;;;;;;5.15;2.35;;;;;;;19.48;100.00;101543.03;5094618;28;20043;-55
2023/08/07 08:30:45;;;;;;;5.95;1.92;;;;;;;19.24;100.00;101552.41;5094378;28;20087;-55
2023/08/07 08:33:12;;;;;;;8.13;2.25;;;;;;;19.37;100.00;101610.34;5094164;28;20380;-56
2023/08/07 08:35:38;;;;;;;5.95;2.20;;;;;;;18.98;100.00;101592.09;5076508;28;20077;-54
2023/08/07 08:38:04;;;;;;;8.05;2.72;;;;;;;19.01;100.00;101607.94;5093591;28;20453;-56
2023/08/07 08:40:30;;;;;;;4.65;1.88;;;;;;;18.88;100.00;101558.00;5094495;28;20040;-58
2023/08/07 08:42:57;;;;;;;6.00;1.70;;;;;;;19.11;100.00;101549.59;5059495;28;20494;-59
2023/08/07 08:45:25;;;;;;;6.55;2.53;;;;;;;20.06;100.00;101559.13;5094223;28;20056;-58
2023/08/07 08:47:51;;;;;;;7.13;1.67;;;;;;;20.65;100.00;101617.00;5094121;28;20039;-57
2023/08/07 08:50:19;;;;;;;6.32;2.00;;;;;;;20.20;100.00;101583.19;5093820;28;20420;-58
2023/08/07 08:52:45;;;;;;;8.35;1.63;;;;;;;20.02;100.00;101574.47;5075825;28;20037;-61
2023/08/07 08:55:11;;;;;;;6.97;1.90;;;;;;;20.30;100.00;101629.00;5093157;28;20047;-60
2023/08/07 08:57:39;;;;;;;7.97;1.77;;;;;;;20.61;100.00;101613.66;5093871;28;20032;-55
2023/08/07 09:00:41;;;;;;;5.80;1.60;;;;;;;20.69;100.00;101638.09;5075929;28;20490;-53
2023/08/07 09:03:01;;;;;;;7.32;1.92;;;;;;;20.08;100.00;101646.28;5089755;28;20036;-57
2023/08/07 09:05:27;;;;;;;6.00;1.70;;;;;;;19.63;100.00;101622.25;5093397;28;20036;-55
2023/08/07 09:07:52;;;;;;;5.00;1.67;;;;;;;20.23;100.00;101629.31;5093723;28;20028;-57
2023/08/07 09:10:18;;;;;;;6.65;1.50;;;;;;;20.64;100.00;101621.50;5074700;28;20535;-59
2023/08/07 09:12:59;;;;;;;6.20;1.67;;;;;;;21.04;100.00;101574.38;5093707;28;20092;-55
2023/08/07 09:15:24;;;;;;;6.25;2.08;;;;;;;21.57;100.00;101596.81;5093551;28;20478;-54
2023/08/07 09:17:52;;;;;;;7.13;2.20;;;;;;;21.35;100.00;101567.03;5075320;28;20032;-56
2023/08/07 09:20:19;;;;;;;6.95;1.92;;;;;;;21.48;100.00;101579.50;5093632;28;20039;-55
2023/08/07 09:22:44;;;;;;;5.75;2.03;;;;;;;21.84;100.00;101644.06;5093596;28;20032;-53
2023/08/07 09:25:10;;;;;;;6.72;1.70;;;;;;;21.80;100.00;101655.09;5093422;28;20032;-57
2023/08/07 09:27:39;;;;;;;7.97;1.75;;;;;;;21.50;100.00;101593.69;5092673;28;20123;-56
2023/08/07 09:30:08;;;;;;;4.32;1.55;;;;;;;21.81;100.00;101657.66;5092883;28;20051;-55
2023/08/07 09:32:33;;;;;;;6.80;1.80;;;;;;;21.16;100.00;101603.03;5093090;28;20032;-57
2023/08/07 09:34:58;;;;;;;7.40;1.67;;;;;;;21.82;100.00;101648.69;5093196;28;20036;-58
2023/08/07 09:37:24;;;;;;;5.68;1.75;;;;;;;21.64;100.00;101652.56;5093215;28;20032;-57
2023/08/07 09:39:49;;;;;;;7.82;1.92;;;;;;;21.69;100.00;101666.50;5058184;28;20036;-59
2023/08/07 09:42:16;;;;;;;7.70;1.83;;;;;;;21.00;100.00;101601.41;5074977;28;20032;-59
2023/08/07 09:44:42;;;;;;;5.85;1.92;;;;;;;21.08;100.00;101679.44;5092242;28;20066;-56
2023/08/07 09:47:18;;;;;;;7.85;1.90;;;;;;;21.67;100.00;101664.91;5093055;28;20055;-57
2023/08/07 09:49:44;;;;;;;9.88;1.85;;;;;;;21.01;100.00;101609.34;5092723;28;20024;-55
2023/08/07 09:52:13;;;;;;;4.60;2.17;;;;;;;21.76;100.00;101675.03;5074763;28;20016;-59
2023/08/07 09:54:38;;;;;;;7.28;1.50;;;;;;;21.91;100.00;101654.41;5058846;28;20024;-55
2023/08/07 09:57:04;;;;;;;3.83;1.98;;;;;;;22.07;100.00;101669.38;5092356;28;20082;-56
2023/08/07 09:59:31;;;;;;;5.93;1.58;;;;;;;22.21;100.00;101685.38;5093004;28;20081;-53
2023/08/07 10:01:57;;;;;;;4.50;1.33;;;;;;;22.36;100.00;101694.22;5092544;28;20466;-56
2023/08/07 10:04:22;;;;;;;3.33;1.27;;;;;;;22.92;100.00;101703.75;5074656;28;20043;-55
2023/08/07 10:06:48;;;;;;;4.13;1.40;;;;;;;23.12;100.00;101692.44;5074715;28;20460;-56
2023/08/07 10:09:13;;;;;;;6.43;1.70;;;;;;;22.96;100.00;101711.50;5074582;28;20024;-56
2023/08/07 10:11:40;;;;;;;4.63;1.92;;;;;;;22.37;100.00;101644.97;5092422;28;20375;-55
2023/08/07 10:14:05;;;;;;;4.55;1.70;;;;;;;22.83;100.00;101704.38;5092418;28;20040;-56
2023/08/07 10:16:30;;;;;;;7.47;1.95;;;;;;;22.18;100.00;101680.22;5091831;28;20489;-54
2023/08/07 10:18:56;;;;;;;2.70;1.20;;;;;;;22.71;100.00;101703.41;5073426;28;20539;-55
2023/08/07 10:21:22;;;;;;;4.70;1.45;;;;;;;22.62;100.00;101639.63;5092428;28;20028;-56
2023/08/07 10:23:48;;;;;;;4.00;1.73;;;;;;;23.00;100.00;101703.22;5074342;28;20112;-58
2023/08/07 10:26:14;;;;;;;6.68;2.22;;;;;;;23.07;100.00;101707.19;5074044;28;20047;-56
2023/08/07 10:28:40;;;;;;;6.07;1.77;;;;;;;23.13;100.00;101698.69;5074483;28;20021;-56
2023/08/07 10:31:07;;;;;;;5.40;2.00;;;;;;;23.24;100.00;101674.59;5092108;28;20411;-53
2023/08/07 10:33:32;;;;;;;3.20;2.13;;;;;;;22.90;100.00;101687.75;5073999;28;20024;-58
2023/08/07 10:35:59;;;;;;;5.55;2.00;;;;;;;21.53;100.00;101699.78;5074400;28;20376;-59
2023/08/07 10:38:25;;;;;;;5.60;2.05;;;;;;;21.49;100.00;101628.59;5091641;28;20071;-51
2023/08/07 10:41:03;;;;;;;5.80;1.63;;;;;;;22.50;100.00;101696.84;5092666;28;20117;-53
2023/08/07 10:43:29;;;;;;;6.20;1.42;;;;;;;22.26;100.00;101701.19;5092137;28;20039;-53
2023/08/07 10:46:12;;;;;;;5.18;1.40;;;;;;;22.54;100.00;101659.91;5074073;28;20032;-53
2023/08/07 10:48:47;;;;;;;4.80;1.85;;;;;;;22.77;100.00;101718.22;5074193;28;20118;-57
2023/08/07 10:51:17;;;;;;;3.47;1.60;;;;;;;22.68;100.00;101706.31;5091936;28;20040;-58
2023/08/07 10:53:55;;;;;;;2.08;1.40;;;;;;;23.18;100.00;101700.06;5073488;28;20471;-50
2023/08/07 10:56:32;;;;;;;5.00;1.60;;;;;;;23.24;100.00;101725.63;5112387;28;20070;-54
2023/08/07 10:58:57;;;;;;;5.72;1.35;;;;;;;23.65;100.00;101677.84;5112280;28;20027;-56
2023/08/07 11:01:34;;;;;;;5.03;1.38;;;;;;;24.44;100.00;101725.69;5112087;28;20378;-52
2023/08/07 11:04:05;;;;;;;9.20;2.60;;;;;;;24.69;100.00;101711.22;5112410;28;20027;-54
2023/08/07 11:06:32;;;;;;;4.88;1.45;;;;;;;24.70;100.00;101703.00;5112905;28;20035;-56
2023/08/07 11:08:58;;;;;;;5.65;1.75;;;;;;;24.93;100.00;101723.63;5112449;28;20474;-54
2023/08/07 11:11:23;;;;;;;2.67;1.20;;;;;;;24.25;100.00;101723.56;5095751;28;20130;-56